Time;durP1;ratioP1;P1;durP2;ratioP2;P2;SDS_P1;SDS_P2;PMS_P1;PMS_P2;Temp;Humidity;BMP_temperature;BMP_pressure;BME280_temperature;BME280_humidity;BME280_pressure;Samples;Min_cycle;Max_cycle;Signal;HPM_P1;HPM_P2
2022/07/09 00:01:10;;;;;;;9.63;4.80;;;;;;;;;;7741580;23;20016;-62
2022/07/09 00:04:11;;;;;;;8.52;4.82;;;;;;;;;;7746370;23;20099;-60
2022/07/09 00:07:12;;;;;;;16.88;5.53;;;;;;;;;;7742691;23;20024;-60
2022/07/09 00:10:12;;;;;;;10.07;4.63;;;;;;;;;;7752210;23;20103;-60
2022/07/09 00:13:13;;;;;;;13.65;4.88;;;;;;;;;;7740203;23;20016;-60
2022/07/09 00:16:13;;;;;;;12.20;5.50;;;;;;;;;;7741172;23;20107;-61
2022/07/09 00:19:14;;;;;;;12.07;5.28;;;;;;;;;;7741263;23;20781;-60
2022/07/09 00:22:15;;;;;;;9.65;4.90;;;;;;;;;;7741738;23;20016;-60
2022/07/09 00:25:15;;;;;;;11.15;4.55;;;;;;;;;;7738920;23;20489;-61
2022/07/09 00:28:16;;;;;;;9.68;4.82;;;;;;;;;;7742005;23;20048;-61
2022/07/09 00:31:16;;;;;;;11.98;4.78;;;;;;;;;;7741074;23;20012;-61
2022/07/09 00:34:17;;;;;;;8.98;4.90;;;;;;;;;;7742382;23;20050;-60
2022/07/09 00:37:17;;;;;;;10.45;5.07;;;;;;;;;;7743644;23;20043;-60
2022/07/09 00:40:18;;;;;;;12.55;5.32;;;;;;;;;;7743355;23;20428;-61
2022/07/09 00:43:21;;;;;;;10.02;5.30;;;;;;;;;;7755517;23;20139;-61
2022/07/09 00:46:22;;;;;;;8.90;5.32;;;;;;;;;;7742258;23;20035;-61
2022/07/09 00:49:24;;;;;;;9.70;5.38;;;;;;;;;;7740633;23;20039;-61
2022/07/09 00:52:24;;;;;;;9.20;5.03;;;;;;;;;;7741556;23;20016;-61
2022/07/09 00:55:25;;;;;;;8.57;5.10;;;;;;;;;;7740919;23;20082;-60
2022/07/09 00:58:27;;;;;;;13.90;5.60;;;;;;;;;;7741023;23;20359;-60
2022/07/09 01:01:28;;;;;;;12.07;5.80;;;;;;;;;;7738605;23;20098;-60
2022/07/09 01:04:29;;;;;;;9.95;5.32;;;;;;;;;;7743273;23;20020;-61
2022/07/09 01:07:30;;;;;;;9.30;5.28;;;;;;;;;;7741046;23;20027;-61
2022/07/09 01:10:31;;;;;;;15.98;5.38;;;;;;;;;;7740682;23;20027;-61
2022/07/09 01:13:32;;;;;;;11.13;5.13;;;;;;;;;;7741077;23;20676;-61
2022/07/09 01:16:37;;;;;;;11.43;5.13;;;;;;;;;;7739577;23;20028;-61
2022/07/09 01:19:37;;;;;;;9.68;4.93;;;;;;;;;;7739531;23;20102;-61
2022/07/09 01:22:38;;;;;;;9.85;4.75;;;;;;;;;;7740594;23;20015;-62
2022/07/09 01:25:45;;;;;;;14.77;5.13;;;;;;;;;;7741174;23;20024;-62
2022/07/09 01:28:47;;;;;;;12.70;5.35;;;;;;;;;;7743145;23;20095;-61
2022/07/09 01:31:47;;;;;;;11.40;5.00;;;;;;;;;;7740190;23;20752;-61
2022/07/09 01:34:48;;;;;;;10.80;4.75;;;;;;;;;;7739449;23;20074;-61
2022/07/09 01:37:49;;;;;;;9.30;4.85;;;;;;;;;;7740624;23;20474;-63
2022/07/09 01:40:49;;;;;;;9.05;5.22;;;;;;;;;;7738806;23;20030;-63
2022/07/09 01:43:50;;;;;;;10.15;5.32;;;;;;;;;;7738822;23;20012;-63
2022/07/09 01:46:50;;;;;;;7.47;4.75;;;;;;;;;;7742498;23;20016;-63
2022/07/09 01:49:51;;;;;;;10.77;5.35;;;;;;;;;;7739384;23;20146;-62
2022/07/09 01:52:51;;;;;;;11.77;5.65;;;;;;;;;;7741445;23;20083;-62
2022/07/09 01:55:52;;;;;;;11.32;5.65;;;;;;;;;;7740861;23;20547;-62
2022/07/09 01:58:52;;;;;;;11.63;5.60;;;;;;;;;;7740699;23;20016;-63
2022/07/09 02:01:53;;;;;;;9.27;4.88;;;;;;;;;;7739993;23;20415;-62
2022/07/09 02:04:54;;;;;;;13.60;5.82;;;;;;;;;;7741480;23;20205;-62
2022/07/09 02:07:56;;;;;;;13.95;5.43;;;;;;;;;;7739992;23;20099;-62
2022/07/09 02:10:57;;;;;;;;;;;;;;;;;;7748122;23;20074;-60
2022/07/09 02:13:58;;;;;;;9.95;5.25;;;;;;;;;;7740404;23;19915;-62
2022/07/09 02:16:58;;;;;;;12.18;5.38;;;;;;;;;;7739813;23;20388;-62
2022/07/09 02:19:59;;;;;;;20.13;6.72;;;;;;;;;;7741103;23;20020;-60
2022/07/09 02:22:59;;;;;;;16.08;6.35;;;;;;;;;;7743199;23;20092;-61
2022/07/09 02:26:00;;;;;;;11.15;5.43;;;;;;;;;;7742533;23;20016;-61
2022/07/09 02:29:01;;;;;;;10.65;5.55;;;;;;;;;;7743890;23;20012;-62
2022/07/09 02:32:02;;;;;;;7.80;5.20;;;;;;;;;;7742497;23;20032;-61
2022/07/09 02:35:04;;;;;;;10.30;5.80;;;;;;;;;;7744096;23;20537;-61
2022/07/09 02:38:05;;;;;;;9.18;5.28;;;;;;;;;;7744506;23;20099;-61
2022/07/09 02:41:06;;;;;;;10.65;5.47;;;;;;;;;;7745818;23;20030;-62
2022/07/09 02:44:07;;;;;;;11.82;5.25;;;;;;;;;;7741799;23;20103;-62
2022/07/09 02:47:07;;;;;;;14.20;6.45;;;;;;;;;;7740193;23;20016;-64
2022/07/09 02:50:08;;;;;;;11.82;6.15;;;;;;;;;;7738607;23;20073;-62
2022/07/09 02:53:09;;;;;;;19.13;5.85;;;;;;;;;;7738156;23;20331;-62
2022/07/09 02:56:10;;;;;;;11.57;5.65;;;;;;;;;;7740759;23;20024;-62
2022/07/09 02:59:10;;;;;;;17.17;6.45;;;;;;;;;;7741223;23;20095;-62
2022/07/09 03:02:11;;;;;;;11.90;5.95;;;;;;;;;;7740177;23;20123;-63
2022/07/09 03:05:11;;;;;;;12.18;6.13;;;;;;;;;;7736216;23;20103;-62
2022/07/09 03:08:12;;;;;;;14.77;6.57;;;;;;;;;;7738212;23;20031;-61
2022/07/09 03:11:12;;;;;;;12.45;6.38;;;;;;;;;;7741367;23;20095;-62
2022/07/09 03:14:13;;;;;;;14.90;5.88;;;;;;;;;;7738776;23;20732;-62
2022/07/09 03:17:13;;;;;;;8.90;5.47;;;;;;;;;;7739644;23;20030;-62
2022/07/09 03:20:14;;;;;;;9.30;5.38;;;;;;;;;;7736688;23;20023;-62
2022/07/09 03:23:15;;;;;;;12.13;6.80;;;;;;;;;;7739021;23;20012;-62
2022/07/09 03:26:15;;;;;;;18.33;6.53;;;;;;;;;;7740519;23;20135;-63
2022/07/09 03:29:16;;;;;;;14.80;6.32;;;;;;;;;;7742208;23;20026;-62
2022/07/09 03:32:17;;;;;;;14.90;5.47;;;;;;;;;;7742123;23;20020;-61
2022/07/09 03:35:17;;;;;;;17.00;6.65;;;;;;;;;;7739817;23;20390;-61
2022/07/09 03:38:18;;;;;;;10.70;5.72;;;;;;;;;;7741467;23;20462;-62
2022/07/09 03:41:18;;;;;;;12.93;6.13;;;;;;;;;;7740511;23;20515;-62
2022/07/09 03:44:19;;;;;;;12.77;6.80;;;;;;;;;;7740071;23;20058;-62
2022/07/09 03:47:19;;;;;;;16.05;7.03;;;;;;;;;;7738057;23;20095;-62
2022/07/09 03:50:20;;;;;;;13.40;7.57;;;;;;;;;;7737974;23;20115;-62
2022/07/09 03:53:21;;;;;;;12.38;6.35;;;;;;;;;;7739932;23;20016;-62
2022/07/09 03:56:21;;;;;;;16.65;7.57;;;;;;;;;;7740290;23;20047;-62
2022/07/09 03:59:22;;;;;;;14.18;6.93;;;;;;;;;;7737834;23;20020;-61
2022/07/09 04:02:22;;;;;;;15.77;6.82;;;;;;;;;;7742560;23;20023;-62
2022/07/09 04:05:23;;;;;;;14.63;6.63;;;;;;;;;;7740015;23;20087;-62
2022/07/09 04:08:23;;;;;;;17.48;6.50;;;;;;;;;;7743065;23;20016;-62
2022/07/09 04:11:24;;;;;;;14.50;6.68;;;;;;;;;;7741671;23;20497;-62
2022/07/09 04:14:24;;;;;;;15.98;6.38;;;;;;;;;;7739930;23;20020;-61
2022/07/09 04:17:25;;;;;;;13.73;6.75;;;;;;;;;;7740540;23;20039;-61
2022/07/09 04:20:26;;;;;;;12.88;5.93;;;;;;;;;;7741424;23;20113;-61
2022/07/09 04:23:27;;;;;;;12.25;5.95;;;;;;;;;;7743727;23;20403;-62
2022/07/09 04:26:28;;;;;;;34.67;19.27;;;;;;;;;;7743008;23;20039;-62
2022/07/09 04:29:28;;;;;;;13.50;6.18;;;;;;;;;;7740412;23;20365;-62
2022/07/09 04:32:29;;;;;;;13.27;5.95;;;;;;;;;;7739679;23;20360;-63
2022/07/09 04:35:29;;;;;;;12.40;7.45;;;;;;;;;;7740118;23;20028;-62
2022/07/09 04:38:30;;;;;;;13.95;7.22;;;;;;;;;;7742021;23;20038;-62
2022/07/09 04:41:31;;;;;;;13.45;6.70;;;;;;;;;;7742524;23;20800;-62
2022/07/09 04:44:32;;;;;;;13.75;6.65;;;;;;;;;;7742303;23;20020;-62
2022/07/09 04:47:32;;;;;;;11.80;5.93;;;;;;;;;;7741677;23;20051;-63
2022/07/09 04:50:33;;;;;;;15.73;6.45;;;;;;;;;;7741427;23;20020;-63
2022/07/09 04:53:34;;;;;;;16.60;6.38;;;;;;;;;;7739287;23;20012;-63
2022/07/09 04:56:35;;;;;;;12.35;5.70;;;;;;;;;;7740784;23;20044;-61
2022/07/09 04:59:36;;;;;;;16.48;5.70;;;;;;;;;;7741248;23;20091;-62
2022/07/09 05:02:37;;;;;;;11.43;5.28;;;;;;;;;;7742701;23;20012;-62
2022/07/09 05:05:38;;;;;;;11.93;5.38;;;;;;;;;;7742738;23;20024;-61
2022/07/09 05:08:39;;;;;;;14.85;6.28;;;;;;;;;;7740012;23;20070;-62
2022/07/09 05:11:39;;;;;;;11.68;5.07;;;;;;;;;;7741229;23;20016;-61
2022/07/09 05:14:40;;;;;;;12.93;5.70;;;;;;;;;;7741587;23;20024;-61
2022/07/09 05:17:41;;;;;;;17.35;6.72;;;;;;;;;;7741670;23;20134;-62
2022/07/09 05:20:42;;;;;;;11.73;5.45;;;;;;;;;;7741954;23;20463;-61
2022/07/09 05:23:42;;;;;;;15.57;5.72;;;;;;;;;;7755690;23;20095;-62
2022/07/09 05:26:43;;;;;;;10.05;5.75;;;;;;;;;;7741768;23;20016;-62
2022/07/09 05:29:43;;;;;;;11.25;5.75;;;;;;;;;;7740125;23;20015;-62
2022/07/09 05:32:44;;;;;;;11.18;5.75;;;;;;;;;;7738402;23;20012;-62
2022/07/09 05:35:45;;;;;;;11.73;6.05;;;;;;;;;;7748755;23;20047;-62
2022/07/09 05:38:47;;;;;;;13.25;5.82;;;;;;;;;;7745266;23;20039;-62
2022/07/09 05:41:48;;;;;;;13.10;5.72;;;;;;;;;;7745166;23;20048;-62
2022/07/09 05:44:50;;;;;;;10.93;5.23;;;;;;;;;;7743770;23;20099;-62
2022/07/09 05:47:50;;;;;;;12.55;5.57;;;;;;;;;;7743575;23;20035;-63
2022/07/09 05:50:51;;;;;;;10.93;5.45;;;;;;;;;;7741189;23;20099;-63
2022/07/09 05:53:51;;;;;;;10.85;5.70;;;;;;;;;;7740197;23;20042;-63
2022/07/09 05:56:52;;;;;;;9.27;6.05;;;;;;;;;;7741015;23;20491;-62
2022/07/09 05:59:52;;;;;;;10.98;5.50;;;;;;;;;;7738685;23;20034;-62
2022/07/09 06:02:54;;;;;;;11.18;6.20;;;;;;;;;;7744065;23;20437;-62
2022/07/09 06:05:54;;;;;;;10.93;6.13;;;;;;;;;;7751825;23;20079;-60
2022/07/09 06:08:55;;;;;;;10.70;5.70;;;;;;;;;;7745030;23;20020;-62
2022/07/09 06:11:55;;;;;;;12.02;6.43;;;;;;;;;;7745774;23;20101;-62
2022/07/09 06:14:56;;;;;;;12.77;7.20;;;;;;;;;;7743982;23;20046;-61
2022/07/09 06:17:56;;;;;;;13.98;6.40;;;;;;;;;;7756744;23;20096;-61
2022/07/09 06:20:57;;;;;;;15.25;6.38;;;;;;;;;;7743847;23;20020;-61
2022/07/09 06:23:57;;;;;;;11.40;6.47;;;;;;;;;;7743921;23;20520;-61
2022/07/09 06:26:58;;;;;;;12.75;6.70;;;;;;;;;;7747017;23;20019;-61
2022/07/09 06:29:59;;;;;;;7.93;6.10;;;;;;;;;;7742277;23;20091;-61
2022/07/09 06:33:00;;;;;;;9.40;5.60;;;;;;;;;;7743974;23;20032;-62
2022/07/09 06:36:01;;;;;;;10.65;5.93;;;;;;;;;;7744232;23;20034;-66
2022/07/09 06:42:21;;;;;;;11.25;4.80;;;;;;;;;;7743612;23;20016;-64
2022/07/09 06:45:22;;;;;;;10.40;5.22;;;;;;;;;;7742906;23;20414;-64
2022/07/09 06:48:22;;;;;;;9.85;4.75;;;;;;;;;;7738882;23;20095;-63
2022/07/09 06:51:23;;;;;;;9.20;4.40;;;;;;;;;;7738728;23;20025;-63
2022/07/09 06:54:24;;;;;;;9.48;4.63;;;;;;;;;;7734835;23;20031;-64
2022/07/09 06:57:25;;;;;;;9.35;5.13;;;;;;;;;;7736508;23;20047;-64
2022/07/09 07:00:25;;;;;;;9.85;4.85;;;;;;;;;;7734778;23;20016;-63
2022/07/09 07:03:26;;;;;;;8.98;4.50;;;;;;;;;;7735459;23;20016;-64
2022/07/09 07:06:26;;;;;;;9.32;4.03;;;;;;;;;;7737757;23;20398;-64
2022/07/09 07:09:28;;;;;;;6.47;2.78;;;;;;;;;;7734636;23;20017;-65
2022/07/09 07:12:29;;;;;;;5.85;3.10;;;;;;;;;;7737522;23;20021;-64
2022/07/09 07:15:29;;;;;;;7.87;2.80;;;;;;;;;;7737655;23;20020;-64
2022/07/09 07:18:30;;;;;;;7.00;3.13;;;;;;;;;;7739424;23;20086;-63
2022/07/09 07:21:30;;;;;;;9.27;3.40;;;;;;;;;;7737834;23;20119;-62
2022/07/09 07:24:31;;;;;;;5.82;2.90;;;;;;;;;;7736545;23;20016;-64
2022/07/09 07:27:31;;;;;;;5.87;2.80;;;;;;;;;;7737050;23;20020;-63
2022/07/09 07:30:32;;;;;;;4.40;2.50;;;;;;;;;;7737609;23;20321;-63
2022/07/09 07:33:33;;;;;;;7.07;3.00;;;;;;;;;;7740458;23;20020;-63
2022/07/09 07:36:34;;;;;;;6.63;3.10;;;;;;;;;;7742039;23;20074;-63
2022/07/09 07:39:35;;;;;;;5.57;2.90;;;;;;;;;;7743813;23;20478;-60
2022/07/09 07:42:35;;;;;;;8.88;3.10;;;;;;;;;;7746494;23;20016;-64
2022/07/09 07:45:36;;;;;;;6.97;3.10;;;;;;;;;;7747804;23;20027;-66
2022/07/09 07:48:36;;;;;;;6.27;3.23;;;;;;;;;;7751270;23;20047;-59
2022/07/09 07:51:37;;;;;;;6.40;3.00;;;;;;;;;;7747181;23;20500;-61
2022/07/09 07:54:37;;;;;;;5.65;2.67;;;;;;;;;;7745768;23;20060;-62
2022/07/09 07:57:38;;;;;;;4.60;2.63;;;;;;;;;;7745508;23;20031;-63
2022/07/09 08:00:39;;;;;;;7.07;3.05;;;;;;;;;;7753604;23;20091;-62
2022/07/09 08:03:39;;;;;;;4.63;2.83;;;;;;;;;;7748434;23;20020;-63
2022/07/09 08:06:40;;;;;;;6.30;3.47;;;;;;;;;;7748915;23;20066;-62
2022/07/09 08:09:41;;;;;;;6.65;3.30;;;;;;;;;;7746598;23;20020;-63
2022/07/09 08:12:41;;;;;;;8.55;3.40;;;;;;;;;;7760038;23;20091;-62
2022/07/09 08:15:42;;;;;;;8.00;3.80;;;;;;;;;;7745880;23;20047;-65
2022/07/09 08:18:43;;;;;;;13.90;4.10;;;;;;;;;;7747640;23;20091;-61
2022/07/09 08:21:43;;;;;;;9.25;4.28;;;;;;;;;;7748110;23;20020;-61
2022/07/09 08:24:44;;;;;;;6.53;3.70;;;;;;;;;;7746929;23;20043;-61
2022/07/09 08:27:44;;;;;;;13.57;4.60;;;;;;;;;;7747438;23;20024;-61
2022/07/09 08:30:45;;;;;;;7.00;4.03;;;;;;;;;;7745884;23;20046;-61
2022/07/09 08:33:46;;;;;;;8.30;3.80;;;;;;;;;;7746832;23;20317;-61
2022/07/09 08:36:46;;;;;;;8.03;3.90;;;;;;;;;;7747104;23;20027;-61
2022/07/09 08:39:47;;;;;;;9.40;4.50;;;;;;;;;;7746882;23;20047;-62
2022/07/09 08:42:49;;;;;;;8.87;4.20;;;;;;;;;;7746241;23;20095;-66
2022/07/09 08:45:53;;;;;;;7.35;3.90;;;;;;;;;;7744924;23;20044;-60
2022/07/09 08:48:54;;;;;;;7.25;3.92;;;;;;;;;;7744230;23;20464;-59
2022/07/09 08:51:56;;;;;;;9.25;4.40;;;;;;;;;;7748052;23;20046;-69
2022/07/09 08:54:57;;;;;;;6.68;4.30;;;;;;;;;;7746447;23;20020;-60
2022/07/09 08:57:57;;;;;;;11.07;4.30;;;;;;;;;;7746896;23;20447;-60
2022/07/09 09:00:58;;;;;;;10.47;4.70;;;;;;;;;;7745368;23;20085;-59
2022/07/09 09:04:01;;;;;;;8.13;3.87;;;;;;;;;;7746151;23;20036;-59
2022/07/09 09:07:15;;;;;;;11.63;4.82;;;;;;;;;;7744392;23;20012;-55
2022/07/09 09:10:28;;;;;;;9.63;4.30;;;;;;;;;;7744687;23;20470;-57
2022/07/09 09:13:28;;;;;;;17.42;4.97;;;;;;;;;;7745421;23;20460;-60
2022/07/09 09:16:29;;;;;;;10.33;5.10;;;;;;;;;;7743360;23;20096;-65
2022/07/09 09:19:30;;;;;;;7.80;4.90;;;;;;;;;;7743675;23;20019;-60
2022/07/09 09:22:30;;;;;;;8.80;4.73;;;;;;;;;;7743386;23;20020;-60
2022/07/09 09:25:31;;;;;;;8.93;4.00;;;;;;;;;;7744714;23;20058;-66
2022/07/09 09:28:32;;;;;;;7.63;4.17;;;;;;;;;;7745456;23;20094;-58
2022/07/09 09:31:34;;;;;;;7.70;3.80;;;;;;;;;;7742996;23;20100;-58
2022/07/09 09:34:41;;;;;;;9.75;4.07;;;;;;;;;;7742626;23;20040;-59
2022/07/09 09:37:43;;;;;;;7.10;3.95;;;;;;;;;;7756908;23;20043;-59
2022/07/09 09:40:46;;;;;;;5.22;3.60;;;;;;;;;;7742969;23;20036;-58
2022/07/09 09:43:47;;;;;;;5.05;3.20;;;;;;;;;;7744096;23;20047;-57
2022/07/09 09:46:48;;;;;;;8.13;3.80;;;;;;;;;;7743339;23;20062;-57
2022/07/09 09:49:49;;;;;;;8.43;3.83;;;;;;;;;;7743207;23;20242;-58
2022/07/09 09:52:52;;;;;;;9.83;4.30;;;;;;;;;;7739876;23;20016;-57
2022/07/09 09:55:53;;;;;;;8.13;3.92;;;;;;;;;;7742052;23;20039;-59
2022/07/09 09:58:55;;;;;;;8.60;3.70;;;;;;;;;;7743021;23;20016;-59
2022/07/09 10:01:55;;;;;;;6.32;3.70;;;;;;;;;;7714554;23;20013;-59
2022/07/09 10:04:57;;;;;;;5.80;3.87;;;;;;;;;;7735487;23;20039;-58
2022/07/09 10:07:57;;;;;;;6.75;3.95;;;;;;;;;;7729550;23;20322;-58
2022/07/09 10:10:58;;;;;;;7.03;3.67;;;;;;;;;;7735001;23;20027;-56
2022/07/09 10:13:58;;;;;;;7.20;3.73;;;;;;;;;;7732973;23;20027;-61
2022/07/09 10:17:16;;;;;;;7.70;3.93;;;;;;;;;;7731814;23;20020;-59
2022/07/09 10:20:16;;;;;;;8.18;3.70;;;;;;;;;;7731931;23;20019;-59
2022/07/09 10:23:23;;;;;;;6.70;3.43;;;;;;;;;;7745239;23;20023;-58
2022/07/09 10:26:38;;;;;;;6.20;3.50;;;;;;;;;;7733304;23;20429;-61
2022/07/09 10:29:53;;;;;;;7.20;4.10;;;;;;;;;;7735505;23;20023;-58
2022/07/09 10:33:07;;;;;;;10.57;4.13;;;;;;;;;;7733263;23;20024;-55
2022/07/09 10:36:14;;;;;;;4.65;3.20;;;;;;;;;;7731728;23;20126;-59
2022/07/09 10:39:15;;;;;;;6.00;3.28;;;;;;;;;;7733897;23;20047;-60
2022/07/09 10:42:23;;;;;;;5.60;2.90;;;;;;;;;;7737384;23;20023;-60
2022/07/09 10:45:31;;;;;;;4.70;2.55;;;;;;;;;;7731686;23;20024;-59
2022/07/09 10:48:32;;;;;;;5.97;2.88;;;;;;;;;;7735386;23;20090;-60
2022/07/09 10:51:33;;;;;;;5.93;2.77;;;;;;;;;;7735959;23;20095;-59
2022/07/09 10:54:34;;;;;;;7.05;2.72;;;;;;;;;;7732596;23;20681;-59
2022/07/09 10:57:35;;;;;;;8.95;3.20;;;;;;;;;;7736068;23;20020;-59
2022/07/09 11:00:36;;;;;;;7.95;3.20;;;;;;;;;;7743032;23;20043;-59
2022/07/09 11:03:37;;;;;;;5.40;3.00;;;;;;;;;;7736775;23;20022;-59
2022/07/09 11:06:45;;;;;;;7.15;3.40;;;;;;;;;;7733759;23;20119;-60
2022/07/09 11:09:46;;;;;;;6.18;2.95;;;;;;;;;;7734443;23;20435;-60
2022/07/09 11:12:47;;;;;;;6.77;2.90;;;;;;;;;;7708255;23;20016;-60
2022/07/09 11:15:48;;;;;;;7.20;3.67;;;;;;;;;;7731890;23;20030;-61
2022/07/09 11:18:49;;;;;;;7.67;3.53;;;;;;;;;;7736332;23;20095;-59
2022/07/09 11:21:50;;;;;;;6.97;3.20;;;;;;;;;;7735355;23;20816;-59
2022/07/09 11:24:50;;;;;;;5.30;2.92;;;;;;;;;;7733644;23;20155;-58
2022/07/09 11:27:51;;;;;;;4.97;2.70;;;;;;;;;;7734475;23;20016;-59
2022/07/09 11:31:03;;;;;;;7.18;3.63;;;;;;;;;;7734953;23;20102;-62
2022/07/09 11:34:12;;;;;;;19.42;10.48;;;;;;;;;;7734637;23;20772;-61
2022/07/09 11:37:23;;;;;;;6.45;2.30;;;;;;;;;;7734926;23;20120;-61
2022/07/09 11:40:24;;;;;;;11.77;7.03;;;;;;;;;;7734711;23;20023;-60
2022/07/09 11:43:25;;;;;;;3.67;2.00;;;;;;;;;;7736349;23;20352;-56
2022/07/09 11:46:25;;;;;;;5.47;2.93;;;;;;;;;;7704855;23;20027;-60
2022/07/09 11:49:41;;;;;;;5.83;2.93;;;;;;;;;;7735841;23;20486;-60
2022/07/09 11:52:50;;;;;;;4.20;2.35;;;;;;;;;;7736950;23;20027;-60
2022/07/09 11:56:01;;;;;;;6.65;3.45;;;;;;;;;;7732664;23;20128;-64
2022/07/09 11:59:02;;;;;;;6.83;2.60;;;;;;;;;;7734893;23;20055;-68
2022/07/09 12:02:03;;;;;;;4.80;2.50;;;;;;;;;;7734059;23;20254;-61
2022/07/09 12:05:08;;;;;;;4.73;2.20;;;;;;;;;;7734598;23;20099;-61
2022/07/09 12:08:09;;;;;;;5.82;2.63;;;;;;;;;;7733783;23;20347;-61
2022/07/09 12:11:10;;;;;;;3.33;2.37;;;;;;;;;;7736432;23;20018;-60
2022/07/09 12:14:12;;;;;;;8.70;2.83;;;;;;;;;;7733971;23;20020;-61
2022/07/09 12:17:19;;;;;;;5.97;2.50;;;;;;;;;;7735461;23;20064;-60
2022/07/09 12:20:31;;;;;;;9.60;3.13;;;;;;;;;;7735153;23;20020;-61
2022/07/09 12:23:32;;;;;;;4.35;2.40;;;;;;;;;;7733264;23;20024;-61
2022/07/09 12:26:33;;;;;;;5.93;2.93;;;;;;;;;;7729248;23;20115;-62
2022/07/09 12:29:34;;;;;;;5.23;2.83;;;;;;;;;;7733881;23;20241;-61
2022/07/09 12:32:34;;;;;;;5.10;2.80;;;;;;;;;;7733578;23;20027;-61
2022/07/09 12:35:35;;;;;;;4.03;2.73;;;;;;;;;;7729000;23;20511;-61
2022/07/09 12:38:35;;;;;;;3.93;2.57;;;;;;;;;;7731083;23;20835;-61
2022/07/09 12:41:36;;;;;;;7.00;2.40;;;;;;;;;;7735989;23;20030;-61
2022/07/09 12:44:36;;;;;;;6.77;2.60;;;;;;;;;;7702953;23;20020;-61
2022/07/09 12:47:37;;;;;;;7.17;6.47;;;;;;;;;;7703395;23;20462;-61
2022/07/09 12:50:38;;;;;;;8.35;4.55;;;;;;;;;;7731628;23;20099;-61
2022/07/09 12:53:38;;;;;;;4.97;3.07;;;;;;;;;;7732247;23;20016;-61
2022/07/09 12:56:40;;;;;;;4.47;3.00;;;;;;;;;;7730654;23;20337;-61
2022/07/09 12:59:41;;;;;;;6.00;3.08;;;;;;;;;;7729094;23;20340;-61
2022/07/09 13:02:41;;;;;;;3.90;2.80;;;;;;;;;;7731456;23;20024;-62
2022/07/09 13:05:42;;;;;;;6.33;3.53;;;;;;;;;;7729517;23;20277;-62
2022/07/09 13:08:43;;;;;;;5.43;2.67;;;;;;;;;;7730645;23;20082;-61
2022/07/09 13:11:44;;;;;;;5.97;2.97;;;;;;;;;;7732037;23;20027;-61
2022/07/09 13:14:44;;;;;;;6.95;2.70;;;;;;;;;;7729665;23;20046;-61
2022/07/09 13:17:45;;;;;;;4.00;2.60;;;;;;;;;;7729579;23;20040;-61
2022/07/09 13:20:45;;;;;;;4.30;2.63;;;;;;;;;;7731588;23;20096;-61
2022/07/09 13:23:47;;;;;;;4.90;3.10;;;;;;;;;;7742286;23;20448;-61
2022/07/09 13:26:47;;;;;;;;;;;;;;;;;;7730180;23;20324;-61
2022/07/09 13:29:48;;;;;;;5.20;2.88;;;;;;;;;;7728151;23;19919;-61
2022/07/09 13:32:49;;;;;;;5.00;2.90;;;;;;;;;;7731815;23;20063;-60
2022/07/09 13:35:50;;;;;;;5.32;3.00;;;;;;;;;;7729335;23;20089;-61
2022/07/09 13:38:51;;;;;;;4.03;2.73;;;;;;;;;;7730520;23;20028;-61
2022/07/09 13:41:51;;;;;;;4.30;2.43;;;;;;;;;;7731574;23;20332;-62
2022/07/09 13:44:52;;;;;;;4.30;2.70;;;;;;;;;;7706843;23;20020;-62
2022/07/09 13:47:53;;;;;;;3.50;2.50;;;;;;;;;;7735997;23;20024;-61
2022/07/09 13:50:54;;;;;;;3.97;2.95;;;;;;;;;;7732976;23;20055;-62
2022/07/09 13:53:54;;;;;;;5.60;3.07;;;;;;;;;;7730336;23;20023;-62
2022/07/09 13:56:56;;;;;;;6.20;3.00;;;;;;;;;;7732297;23;20020;-62
2022/07/09 13:59:57;;;;;;;5.72;2.90;;;;;;;;;;7731173;23;20108;-61
2022/07/09 14:02:58;;;;;;;4.63;2.73;;;;;;;;;;7732475;23;20024;-61
2022/07/09 14:05:59;;;;;;;7.07;3.57;;;;;;;;;;7735615;23;20026;-62
2022/07/09 14:09:00;;;;;;;4.03;2.50;;;;;;;;;;7733812;23;20016;-61
2022/07/09 14:12:00;;;;;;;4.47;2.30;;;;;;;;;;7734104;23;20030;-61
2022/07/09 14:15:01;;;;;;;4.57;2.60;;;;;;;;;;7729745;23;20107;-61
2022/07/09 14:18:02;;;;;;;4.23;2.93;;;;;;;;;;7734032;23;20016;-62
2022/07/09 14:21:03;;;;;;;4.03;2.42;;;;;;;;;;7733927;23;20020;-61
2022/07/09 14:24:03;;;;;;;4.70;2.50;;;;;;;;;;7731473;23;20103;-61
2022/07/09 14:27:04;;;;;;;5.05;2.70;;;;;;;;;;7733042;23;20746;-62
2022/07/09 14:30:05;;;;;;;3.83;2.50;;;;;;;;;;7730824;23;20016;-62
2022/07/09 14:33:06;;;;;;;3.95;2.28;;;;;;;;;;7729444;23;21222;-62
2022/07/09 14:36:06;;;;;;;3.77;2.40;;;;;;;;;;7729567;23;20016;-62
2022/07/09 14:39:07;;;;;;;3.83;2.20;;;;;;;;;;7728340;23;20020;-61
2022/07/09 14:42:07;;;;;;;5.00;2.90;;;;;;;;;;7729288;23;20071;-61
2022/07/09 14:45:09;;;;;;;5.77;3.33;;;;;;;;;;7728142;23;20039;-61
2022/07/09 14:48:10;;;;;;;10.52;5.53;;;;;;;;;;7729076;23;20031;-61
2022/07/09 14:51:11;;;;;;;9.90;5.43;;;;;;;;;;7728167;23;20103;-61
2022/07/09 14:54:11;;;;;;;7.70;3.63;;;;;;;;;;7724081;23;20020;-61
2022/07/09 14:57:12;;;;;;;5.53;3.13;;;;;;;;;;7704745;23;20026;-61
2022/07/09 15:00:12;;;;;;;11.83;5.60;;;;;;;;;;7728525;23;20020;-62
2022/07/09 15:03:13;;;;;;;6.63;3.80;;;;;;;;;;7728797;23;20024;-61
2022/07/09 15:06:14;;;;;;;9.43;5.73;;;;;;;;;;7728288;23;20023;-61
2022/07/09 15:09:15;;;;;;;4.87;3.40;;;;;;;;;;7728610;23;20027;-61
2022/07/09 15:12:15;;;;;;;4.43;3.43;;;;;;;;;;7730851;23;20253;-61
2022/07/09 15:15:16;;;;;;;7.10;3.03;;;;;;;;;;7728711;23;20051;-60
2022/07/09 15:18:16;;;;;;;6.10;3.07;;;;;;;;;;7730065;23;20024;-60
2022/07/09 15:21:17;;;;;;;5.73;3.37;;;;;;;;;;7730746;23;20034;-61
2022/07/09 15:24:19;;;;;;;5.27;3.00;;;;;;;;;;7739570;23;20020;-60
2022/07/09 15:27:20;;;;;;;4.85;2.55;;;;;;;;;;7729626;23;20170;-60
2022/07/09 15:30:22;;;;;;;3.97;2.53;;;;;;;;;;7729990;23;20013;-61
2022/07/09 15:33:23;;;;;;;4.82;2.75;;;;;;;;;;7729598;23;20103;-62
2022/07/09 15:36:24;;;;;;;5.10;2.20;;;;;;;;;;7732830;23;20493;-61
2022/07/09 15:39:25;;;;;;;4.97;2.53;;;;;;;;;;7728917;23;20020;-61
2022/07/09 15:42:25;;;;;;;5.23;2.63;;;;;;;;;;7727910;23;20027;-61
2022/07/09 15:45:26;;;;;;;4.70;2.63;;;;;;;;;;7726596;23;20257;-61
2022/07/09 15:48:27;;;;;;;4.67;2.50;;;;;;;;;;7727155;23;20531;-60
2022/07/09 15:51:28;;;;;;;6.03;2.60;;;;;;;;;;7728574;23;20066;-61
2022/07/09 15:54:28;;;;;;;5.30;3.37;;;;;;;;;;7729896;23;20020;-61
2022/07/09 15:57:29;;;;;;;5.57;2.37;;;;;;;;;;7734910;23;20024;-62
2022/07/09 16:00:29;;;;;;;3.63;2.20;;;;;;;;;;7709190;23;20016;-61
2022/07/09 16:03:30;;;;;;;7.10;2.73;;;;;;;;;;7738566;23;20473;-61
2022/07/09 16:06:31;;;;;;;5.47;2.40;;;;;;;;;;7737360;23;20090;-61
2022/07/09 16:09:31;;;;;;;4.57;2.40;;;;;;;;;;7739047;23;20039;-61
2022/07/09 16:12:50;;;;;;;5.70;2.77;;;;;;;;;;7737663;23;20026;-61
2022/07/09 16:15:51;;;;;;;7.95;4.55;;;;;;;;;;7736227;23;20134;-61
2022/07/09 16:18:51;;;;;;;4.50;2.53;;;;;;;;;;7737452;23;20776;-61
2022/07/09 16:21:52;;;;;;;5.80;2.60;;;;;;;;;;7736027;23;20596;-61
2022/07/09 16:24:52;;;;;;;4.53;2.70;;;;;;;;;;7734855;23;20012;-60
2022/07/09 16:27:53;;;;;;;3.97;2.53;;;;;;;;;;7737775;23;20031;-67
2022/07/09 16:30:53;;;;;;;4.43;2.50;;;;;;;;;;7737427;23;20103;-61
2022/07/09 16:33:54;;;;;;;4.57;2.60;;;;;;;;;;7735487;23;20094;-61
2022/07/09 16:36:54;;;;;;;6.00;2.43;;;;;;;;;;7735424;23;20129;-64
2022/07/09 16:39:55;;;;;;;5.30;2.40;;;;;;;;;;7735958;23;20024;-62
2022/07/09 16:42:56;;;;;;;5.57;2.60;;;;;;;;;;7748607;23;20024;-60
2022/07/09 16:46:07;;;;;;;3.57;2.27;;;;;;;;;;7734641;23;20031;-62
2022/07/09 16:49:07;;;;;;;4.67;2.60;;;;;;;;;;7735293;23;20020;-61
2022/07/09 16:52:08;;;;;;;5.17;2.97;;;;;;;;;;7735877;23;20020;-62
2022/07/09 16:55:09;;;;;;;4.97;2.87;;;;;;;;;;7733971;23;20030;-63
2022/07/09 16:58:10;;;;;;;4.47;2.28;;;;;;;;;;7735890;23;20094;-62
2022/07/09 17:01:10;;;;;;;3.80;2.30;;;;;;;;;;7736557;23;20019;-61
2022/07/09 17:04:12;;;;;;;4.00;2.50;;;;;;;;;;7734681;23;20464;-61
2022/07/09 17:07:12;;;;;;;5.22;2.20;;;;;;;;;;7736670;23;20313;-61
2022/07/09 17:10:14;;;;;;;4.83;2.20;;;;;;;;;;7736880;23;20067;-61
2022/07/09 17:13:15;;;;;;;4.60;1.80;;;;;;;;;;7738085;23;20343;-60
2022/07/09 17:16:16;;;;;;;5.68;3.20;;;;;;;;;;7734993;23;20506;-59
2022/07/09 17:19:16;;;;;;;3.47;2.00;;;;;;;;;;7735790;23;20016;-60
2022/07/09 17:22:17;;;;;;;13.03;7.97;;;;;;;;;;7735163;23;20022;-60
2022/07/09 17:25:23;;;;;;;4.40;2.13;;;;;;;;;;7733903;23;20457;-61
2022/07/09 17:28:25;;;;;;;3.88;1.90;;;;;;;;;;7748773;23;20043;-65
2022/07/09 17:31:28;;;;;;;4.15;2.10;;;;;;;;;;7736731;23;20016;-60
2022/07/09 17:34:29;;;;;;;4.43;2.20;;;;;;;;;;7733057;23;20325;-61
2022/07/09 17:37:30;;;;;;;4.53;2.37;;;;;;;;;;7736571;23;20079;-60
2022/07/09 17:40:31;;;;;;;5.23;2.40;;;;;;;;;;7736751;23;20070;-60
2022/07/09 17:43:31;;;;;;;5.60;2.40;;;;;;;;;;7736375;23;20020;-60
2022/07/09 17:46:32;;;;;;;4.20;2.00;;;;;;;;;;7735669;23;20099;-61
2022/07/09 17:49:32;;;;;;;3.97;2.03;;;;;;;;;;7735981;23;20978;-60
2022/07/09 17:52:33;;;;;;;4.03;2.23;;;;;;;;;;7737930;23;20469;-60
2022/07/09 17:55:34;;;;;;;4.63;2.20;;;;;;;;;;7735389;23;20359;-61
2022/07/09 17:58:34;;;;;;;4.37;2.10;;;;;;;;;;7735743;23;20020;-61
2022/07/09 18:01:35;;;;;;;4.43;2.20;;;;;;;;;;7734280;23;20391;-61
2022/07/09 18:04:36;;;;;;;5.07;3.00;;;;;;;;;;7732828;23;20375;-61